Poplar City, Illinois
Current Conditions -  °F | °C
As of 4:15 AM on Saturday 20 Dec 2014 (Local Time) from KAAA Reporting Station
Haze Haze  
Wind Chill: 31°   Ceiling: 5500
Heat Index: 31°   Visibility: 4mi
Dew Point: 29°   Wind: 0mph
Humidity: 92%   Direction: NA
Pressure: 30.27"   Gusts: NA
Location:  40.2326°N, 89.8458°W
Report Text: KAAA 201015Z AUTO 00000KT 4SM BR SCT048 OVC055 00/M02 A3027 RMK AO2 T10051017
Loading
Personal Weather Stations






























Interactive Weather Map New forecast layout! Learn more

10-Day Weather Forecast

Advertisements
Track Severe Weather on mobile